Terminal Aerodrome Forecast
Issued by NWS

Home | Current Version | Previous Version | Graphics & Text | Print | Product List | Glossary On
Versions: 1 2 3 4 5 6 7 8 9 10 11 12 13 14 15 16 17 18 19 20 21
000
FTUS43 KABR 171100
TAFPIR
TAF
KPIR 171130Z 1712/1812 VRB06KT P6SM VCSH SCT060
     FM171800 14006KT P6SM SCT020 BKN040
     FM180000 18006KT P6SM VCTS BKN040CB
     FM180400 32006KT P6SM SKC=

USA.gov is the U.S. government's official web portal to all federal, state and local government web resources and services.